createdAt,value
2022-11-20T00:01:33.333Z,9.95
2022-11-20T00:04:01.322Z,9.63
2022-11-20T00:06:29.678Z,10.00
2022-11-20T00:08:59.196Z,8.80
2022-11-20T00:11:29.595Z,8.77
2022-11-20T00:13:59.797Z,10.93
2022-11-20T00:16:29.188Z,9.18
2022-11-20T00:18:56.852Z,9.17
2022-11-20T00:21:29.734Z,8.48
2022-11-20T00:23:58.512Z,8.37
2022-11-20T00:26:28.209Z,9.23
2022-11-20T00:28:58.202Z,8.98
2022-11-20T00:31:26.600Z,9.68
2022-11-20T00:33:54.997Z,10.43
2022-11-20T00:36:25.095Z,8.35
2022-11-20T00:38:58.051Z,8.75
2022-11-20T00:41:26.768Z,9.40
2022-11-20T00:43:56.267Z,9.38
2022-11-20T00:46:26.973Z,8.50
2022-11-20T00:48:55.327Z,7.40
2022-11-20T00:51:26.558Z,8.20
2022-11-20T00:53:56.823Z,7.90
2022-11-20T00:56:24.597Z,9.13
2022-11-20T00:58:52.458Z,8.27
2022-11-20T01:01:25.164Z,9.60
2022-11-20T01:03:55.217Z,8.90
2022-11-20T01:06:25.713Z,7.65
2022-11-20T01:08:55.913Z,7.50
2022-11-20T01:11:26.567Z,7.75
2022-11-20T01:13:55.703Z,8.30
2022-11-20T01:16:29.811Z,7.78
2022-11-20T01:19:00.856Z,7.15
2022-11-20T01:21:32.615Z,9.25
2022-11-20T01:24:00.444Z,7.65
2022-11-20T01:26:30.465Z,8.13
2022-11-20T01:28:59.032Z,8.55
2022-11-20T01:31:34.793Z,8.15
2022-11-20T01:34:06.168Z,8.18
2022-11-20T01:36:36.632Z,7.30
2022-11-20T01:39:13.631Z,6.68
2022-11-20T01:42:01.868Z,7.63
2022-11-20T01:45:02.163Z,8.23
2022-11-20T01:47:45.684Z,8.27
2022-11-20T01:50:25.650Z,8.82
2022-11-20T01:52:59.012Z,8.05
2022-11-20T01:55:33.351Z,6.68
2022-11-20T01:58:02.440Z,8.88
2022-11-20T02:00:30.472Z,7.70
2022-11-20T02:03:01.189Z,7.75
2022-11-20T02:05:32.370Z,7.40
2022-11-20T02:08:01.417Z,7.05
2022-11-20T02:10:30.183Z,8.27
2022-11-20T02:13:16.578Z,7.15
2022-11-20T02:15:45.184Z,6.82
2022-11-20T02:18:17.159Z,7.00
2022-11-20T02:20:46.489Z,6.82
2022-11-20T02:23:29.410Z,5.65
2022-11-20T02:25:58.715Z,5.28
2022-11-20T02:28:26.618Z,5.78
2022-11-20T02:30:54.331Z,5.05
2022-11-20T02:33:22.247Z,6.32
2022-11-20T02:35:50.392Z,5.18
2022-11-20T02:38:18.791Z,5.32
2022-11-20T02:40:47.180Z,5.60
2022-11-20T02:43:17.358Z,5.15
2022-11-20T02:45:45.254Z,5.20
2022-11-20T02:48:13.683Z,5.55
2022-11-20T02:50:41.550Z,6.05
2022-11-20T02:53:09.667Z,5.75
2022-11-20T02:55:37.717Z,6.32
2022-11-20T02:58:05.208Z,5.20
2022-11-20T03:00:33.261Z,5.68
2022-11-20T03:03:00.863Z,5.25
2022-11-20T03:05:28.648Z,5.40
2022-11-20T03:07:56.178Z,6.35
2022-11-20T03:10:23.718Z,6.40
2022-11-20T03:12:56.473Z,6.78
2022-11-20T03:15:25.145Z,5.45
2022-11-20T03:17:56.748Z,6.03
2022-11-20T03:20:24.736Z,6.47
2022-11-20T03:22:54.664Z,6.32
2022-11-20T03:25:23.142Z,6.85
2022-11-20T03:27:50.638Z,6.63
2022-11-20T03:30:18.340Z,5.80
2022-11-20T03:32:45.875Z,6.40
2022-11-20T03:35:13.438Z,7.40
2022-11-20T03:37:41.048Z,6.43
2022-11-20T03:40:09.794Z,6.95
2022-11-20T03:42:46.619Z,5.70
2022-11-20T03:45:16.379Z,6.22
2022-11-20T03:47:45.280Z,6.85
2022-11-20T03:50:14.961Z,5.85
2022-11-20T03:52:42.730Z,5.53
2022-11-20T03:55:11.180Z,6.80
2022-11-20T03:57:39.260Z,7.22
2022-11-20T04:00:07.629Z,6.47
2022-11-20T04:02:35.245Z,7.60
2022-11-20T04:05:02.756Z,8.02
2022-11-20T04:07:31.183Z,6.72
2022-11-20T04:09:58.783Z,6.93
2022-11-20T04:12:26.355Z,6.85
2022-11-20T04:14:54.395Z,6.93
2022-11-20T04:17:21.859Z,7.13
2022-11-20T04:19:49.807Z,6.78
2022-11-20T04:22:18.291Z,6.18
2022-11-20T04:24:45.904Z,6.50
2022-11-20T04:27:13.653Z,6.65
2022-11-20T04:29:41.233Z,6.57
2022-11-20T04:32:08.779Z,6.57
2022-11-20T04:34:36.302Z,6.68
2022-11-20T04:37:03.908Z,5.80
2022-11-20T04:39:31.507Z,5.60
2022-11-20T04:42:18.349Z,5.85
2022-11-20T04:44:45.970Z,6.20
2022-11-20T04:47:13.689Z,5.40
2022-11-20T04:49:41.256Z,5.85
2022-11-20T04:52:08.902Z,6.22
2022-11-20T04:54:36.883Z,6.22
2022-11-20T04:57:04.494Z,5.78
2022-11-20T04:59:32.129Z,6.90
2022-11-20T05:02:00.103Z,5.50
2022-11-20T05:04:27.948Z,5.93
2022-11-20T05:06:55.472Z,6.68
2022-11-20T05:09:23.623Z,6.43
2022-11-20T05:11:51.856Z,8.13
2022-11-20T05:14:19.360Z,7.32
2022-11-20T05:16:47.024Z,6.45
2022-11-20T05:19:15.435Z,5.95
2022-11-20T05:21:43.319Z,6.35
2022-11-20T05:24:11.669Z,5.70
2022-11-20T05:26:39.765Z,7.05
2022-11-20T05:29:07.587Z,5.43
2022-11-20T05:31:35.577Z,5.32
2022-11-20T05:34:03.571Z,5.78
2022-11-20T05:36:31.583Z,6.22
2022-11-20T05:39:01.776Z,6.18
2022-11-20T05:41:30.022Z,7.03
2022-11-20T05:43:58.825Z,6.95
2022-11-20T05:46:28.692Z,7.18
2022-11-20T05:48:58.838Z,5.93
2022-11-20T05:51:27.066Z,6.50
2022-11-20T05:53:57.481Z,5.72
2022-11-20T05:56:25.558Z,6.53
2022-11-20T05:58:53.047Z,5.57
2022-11-20T06:01:23.335Z,5.72
2022-11-20T06:03:51.916Z,5.80
2022-11-20T06:06:20.755Z,6.13
2022-11-20T06:08:48.601Z,6.78
2022-11-20T06:11:16.928Z,6.53
2022-11-20T06:13:44.988Z,6.40
2022-11-20T06:16:16.022Z,5.28
2022-11-20T06:18:43.621Z,5.18
2022-11-20T06:21:22.305Z,4.97
2022-11-20T06:23:51.301Z,5.90
2022-11-20T06:26:21.815Z,5.63
2022-11-20T06:28:49.451Z,5.88
2022-11-20T06:31:19.150Z,5.40
2022-11-20T06:33:46.925Z,6.53
2022-11-20T06:36:16.457Z,5.45
2022-11-20T06:38:44.804Z,6.47
2022-11-20T06:41:16.628Z,6.90
2022-11-20T06:43:44.931Z,6.63
2022-11-20T06:46:13.687Z,7.10
2022-11-20T06:48:41.865Z,6.50
2022-11-20T06:51:10.212Z,6.00
2022-11-20T06:53:38.688Z,6.57
2022-11-20T06:56:07.648Z,6.75
2022-11-20T06:58:36.767Z,6.00
2022-11-20T07:01:16.295Z,5.38
2022-11-20T07:03:44.687Z,5.78
2022-11-20T07:06:12.858Z,6.05
2022-11-20T07:08:41.380Z,5.47
2022-11-20T07:11:09.598Z,5.18
2022-11-20T07:13:37.103Z,5.15
2022-11-20T07:16:07.761Z,5.03
2022-11-20T07:18:36.604Z,4.13
2022-11-20T07:21:06.239Z,5.47
2022-11-20T07:23:34.238Z,4.60
2022-11-20T07:26:10.076Z,5.25
2022-11-20T07:28:38.482Z,5.05
2022-11-20T07:31:07.799Z,4.78
2022-11-20T07:33:36.157Z,5.43
2022-11-20T07:36:03.930Z,5.15
2022-11-20T07:38:31.944Z,4.55
2022-11-20T07:41:02.553Z,4.10
2022-11-20T07:43:31.018Z,6.53
2022-11-20T07:46:00.109Z,12.57
2022-11-20T07:48:28.274Z,3.85
2022-11-20T07:50:59.236Z,3.88
2022-11-20T07:53:27.263Z,3.50
2022-11-20T07:55:55.266Z,6.25
2022-11-20T07:58:23.014Z,4.97
2022-11-20T08:00:50.691Z,4.05
2022-11-20T08:03:24.389Z,4.93
2022-11-20T08:05:53.432Z,3.33
2022-11-20T08:08:22.588Z,4.20
2022-11-20T08:10:50.158Z,3.88
2022-11-20T08:13:36.372Z,4.72
2022-11-20T08:16:04.859Z,3.83
2022-11-20T08:18:32.970Z,3.30
2022-11-20T08:21:05.141Z,3.65
2022-11-20T08:23:33.274Z,3.75
2022-11-20T08:26:01.287Z,3.53
2022-11-20T08:28:28.917Z,3.53
2022-11-20T08:31:03.897Z,3.42
2022-11-20T08:33:33.625Z,4.15
2022-11-20T08:36:03.516Z,4.13
2022-11-20T08:38:32.636Z,3.67
2022-11-20T08:41:20.968Z,3.33
2022-11-20T08:43:49.186Z,3.47
2022-11-20T08:46:17.927Z,3.30
2022-11-20T08:48:45.775Z,3.35
2022-11-20T08:51:13.975Z,3.05
2022-11-20T08:53:43.263Z,2.33
2022-11-20T08:56:11.689Z,2.80
2022-11-20T08:59:02.311Z,2.80
2022-11-20T09:01:28.678Z,2.88
2022-11-20T09:03:57.796Z,3.13
2022-11-20T09:06:25.762Z,2.72
2022-11-20T09:08:54.503Z,2.50
2022-11-20T09:11:22.569Z,2.88
2022-11-20T09:13:50.766Z,2.63
2022-11-20T09:16:18.291Z,2.30
2022-11-20T09:18:45.848Z,2.38
2022-11-20T09:21:15.178Z,2.10
2022-11-20T09:23:43.611Z,2.22
2022-11-20T09:26:13.251Z,1.90
2022-11-20T09:28:41.765Z,2.50
2022-11-20T09:31:18.814Z,2.17
2022-11-20T09:33:46.590Z,2.22
2022-11-20T09:36:14.733Z,2.10
2022-11-20T09:38:42.444Z,2.25
2022-11-20T09:41:57.620Z,3.55
2022-11-20T09:44:36.892Z,3.13
2022-11-20T09:47:36.194Z,2.80
2022-11-20T09:50:06.829Z,3.05
2022-11-20T09:52:54.195Z,3.45
2022-11-20T09:55:22.497Z,3.90
2022-11-20T09:57:53.506Z,3.80
2022-11-20T10:00:23.070Z,3.78
2022-11-20T10:02:57.705Z,2.10
2022-11-20T10:05:46.711Z,2.47
2022-11-20T10:08:23.099Z,2.88
2022-11-20T10:10:57.988Z,2.13
2022-11-20T10:14:21.174Z,3.22
2022-11-20T10:16:57.740Z,2.20
2022-11-20T10:19:44.045Z,3.22
2022-11-20T10:22:48.101Z,2.80
2022-11-20T10:25:17.520Z,2.20
2022-11-20T10:28:03.532Z,1.95
2022-11-20T10:30:37.176Z,2.67
2022-11-20T10:33:16.912Z,2.65
2022-11-20T10:35:53.947Z,4.28
2022-11-20T10:38:40.289Z,3.47
2022-11-20T10:41:27.320Z,4.00
2022-11-20T10:44:02.014Z,4.22
2022-11-20T10:46:38.624Z,3.97
2022-11-20T10:49:20.220Z,3.67
2022-11-20T10:51:52.521Z,4.38
2022-11-20T10:54:57.214Z,4.30
2022-11-20T10:57:56.764Z,4.05
2022-11-20T11:00:24.319Z,3.65
2022-11-20T11:02:54.428Z,3.33
2022-11-20T11:05:22.102Z,3.53
2022-11-20T11:07:57.025Z,4.07
2022-11-20T11:10:39.704Z,3.78
2022-11-20T11:13:07.631Z,3.97
2022-11-20T11:15:41.406Z,2.88
2022-11-20T11:20:40.057Z,4.00
2022-11-20T11:23:33.572Z,3.63
2022-11-20T11:26:03.602Z,4.05
2022-11-20T11:28:31.528Z,4.18
2022-11-20T11:30:59.156Z,4.72
2022-11-20T11:33:36.970Z,18.77
2022-11-20T11:36:18.020Z,4.80
2022-11-20T11:38:45.933Z,5.70
2022-11-20T11:41:22.731Z,11.50
2022-11-20T11:44:15.840Z,7.80
2022-11-20T11:46:57.629Z,6.55
2022-11-20T11:49:25.578Z,5.63
2022-11-20T11:52:09.391Z,36.47
2022-11-20T11:54:49.673Z,7.47
2022-11-20T11:57:27.593Z,7.78
2022-11-20T12:00:27.700Z,9.00
2022-11-20T12:03:16.943Z,10.85
2022-11-20T12:05:48.249Z,10.77
2022-11-20T12:08:22.417Z,9.20
2022-11-20T12:10:54.689Z,10.35
2022-11-20T12:13:34.885Z,11.18
2022-11-20T12:16:04.490Z,11.60
2022-11-20T12:18:32.565Z,11.73
2022-11-20T12:21:24.252Z,11.73
2022-11-20T12:24:17.864Z,10.98
2022-11-20T12:27:19.482Z,13.57
2022-11-20T12:30:10.091Z,14.50
2022-11-20T12:32:37.950Z,14.20
2022-11-20T12:35:30.447Z,15.80
2022-11-20T12:38:22.771Z,14.27
2022-11-20T12:40:53.204Z,15.32
2022-11-20T12:43:49.627Z,14.05
2022-11-20T12:47:02.629Z,12.82
2022-11-20T12:49:54.600Z,13.13
2022-11-20T12:53:01.593Z,11.10
2022-11-20T12:55:44.308Z,13.68
2022-11-20T12:58:36.346Z,14.18
2022-11-20T13:01:41.060Z,14.63
2022-11-20T13:04:32.062Z,12.82
2022-11-20T13:07:01.668Z,11.75
2022-11-20T13:09:31.257Z,13.40
2022-11-20T13:12:15.283Z,15.57
2022-11-20T13:17:52.442Z,15.73
2022-11-20T13:20:20.757Z,17.33
2022-11-20T13:22:53.263Z,17.70
2022-11-20T13:25:25.513Z,15.98
2022-11-20T13:27:53.767Z,17.05
2022-11-20T13:30:23.599Z,13.73
2022-11-20T13:33:18.765Z,15.57
2022-11-20T13:36:22.180Z,83.75
2022-11-20T13:38:52.324Z,15.18
2022-11-20T13:41:29.653Z,16.92
2022-11-20T13:44:09.078Z,29.05
2022-11-20T13:46:39.766Z,16.58
2022-11-20T13:49:17.703Z,15.32
2022-11-20T13:51:48.894Z,17.80
2022-11-20T13:54:20.258Z,32.35
2022-11-20T13:56:53.909Z,16.92
2022-11-20T13:59:39.935Z,14.73
2022-11-20T14:02:19.632Z,14.65
2022-11-20T14:04:51.151Z,14.43
2022-11-20T14:07:21.693Z,16.25
2022-11-20T14:09:57.837Z,14.45
2022-11-20T14:12:33.654Z,13.20
2022-11-20T14:15:01.926Z,14.07
2022-11-20T14:17:29.813Z,14.98
2022-11-20T14:20:03.616Z,16.83
2022-11-20T14:22:31.836Z,15.57
2022-11-20T14:25:05.778Z,16.15
2022-11-20T14:27:42.233Z,14.93
2022-11-20T14:30:22.349Z,15.20
2022-11-20T14:32:52.487Z,16.02
2022-11-20T14:35:29.104Z,15.50
2022-11-20T14:37:57.582Z,15.93
2022-11-20T14:40:28.287Z,16.33
2022-11-20T14:42:57.031Z,15.32
2022-11-20T14:45:25.436Z,15.98
2022-11-20T14:47:57.102Z,16.92
2022-11-20T14:50:27.641Z,17.60
2022-11-20T14:53:01.343Z,18.75
2022-11-20T14:55:32.628Z,18.63
2022-11-20T14:58:06.574Z,16.92
2022-11-20T15:00:36.511Z,19.38
2022-11-20T15:03:04.489Z,19.17
2022-11-20T15:05:49.204Z,20.42
2022-11-20T15:08:17.832Z,21.17
2022-11-20T15:10:52.581Z,18.42
2022-11-20T15:13:40.178Z,19.52
2022-11-20T15:16:35.165Z,20.20
2022-11-20T15:19:10.235Z,18.95
2022-11-20T15:21:37.775Z,18.42
2022-11-20T15:24:10.043Z,19.65
2022-11-20T15:26:40.335Z,20.23
2022-11-20T15:29:12.921Z,19.27
2022-11-20T15:31:42.558Z,21.77
2022-11-20T15:34:14.302Z,21.33
2022-11-20T15:36:43.317Z,20.90
2022-11-20T15:39:12.608Z,20.92
2022-11-20T15:41:40.366Z,22.30
2022-11-20T15:44:08.371Z,20.95
2022-11-20T15:46:43.333Z,22.77
2022-11-20T15:49:16.554Z,21.33
2022-11-20T15:51:47.561Z,22.52
2022-11-20T15:54:19.120Z,21.92
2022-11-20T15:56:50.394Z,22.50
2022-11-20T15:59:18.077Z,22.08
2022-11-20T16:01:46.267Z,23.63
2022-11-20T16:04:17.040Z,21.77
2022-11-20T16:06:45.287Z,24.27
2022-11-20T16:09:12.878Z,21.83
2022-11-20T16:11:41.027Z,23.08
2022-11-20T16:14:30.275Z,21.38
2022-11-20T16:16:58.253Z,22.17
2022-11-20T16:19:26.194Z,22.88
2022-11-20T16:22:01.196Z,22.58
2022-11-20T16:24:31.109Z,23.50
2022-11-20T16:26:58.617Z,22.67
2022-11-20T16:29:26.105Z,23.25
2022-11-20T16:31:53.646Z,22.05
2022-11-20T16:34:21.618Z,24.20
2022-11-20T16:36:49.530Z,23.83
2022-11-20T16:39:23.056Z,23.13
2022-11-20T16:41:51.985Z,22.92
2022-11-20T16:44:19.628Z,23.42
2022-11-20T16:46:47.563Z,24.52
2022-11-20T16:49:15.436Z,25.75
2022-11-20T16:51:43.644Z,24.63
2022-11-20T16:54:15.046Z,26.80
2022-11-20T16:56:48.096Z,24.50
2022-11-20T16:59:16.182Z,25.88
2022-11-20T17:01:44.171Z,25.75
2022-11-20T17:04:11.825Z,25.55
2022-11-20T17:06:44.377Z,27.73
2022-11-20T17:09:13.925Z,25.95
2022-11-20T17:11:41.848Z,25.80
2022-11-20T17:14:12.546Z,27.73
2022-11-20T17:16:40.919Z,28.23
2022-11-20T17:19:09.446Z,30.45
2022-11-20T17:21:37.489Z,28.48
2022-11-20T17:24:10.672Z,28.50
2022-11-20T17:26:40.689Z,31.65
2022-11-20T17:29:12.655Z,29.95
2022-11-20T17:31:44.173Z,30.85
2022-11-20T17:34:13.682Z,29.73
2022-11-20T17:36:45.758Z,31.45
2022-11-20T17:39:17.980Z,30.38
2022-11-20T17:42:06.405Z,30.77
2022-11-20T17:44:35.101Z,34.58
2022-11-20T17:47:03.229Z,38.22
2022-11-20T17:49:31.183Z,39.95
2022-11-20T17:51:58.682Z,38.13
2022-11-20T17:54:26.854Z,38.95
2022-11-20T17:57:13.505Z,37.03
2022-11-20T17:59:41.166Z,39.90
2022-11-20T18:02:11.073Z,38.25
2022-11-20T18:04:39.067Z,41.05
2022-11-20T18:07:06.685Z,40.92
2022-11-20T18:09:34.754Z,38.97
2022-11-20T18:12:02.737Z,39.78
2022-11-20T18:14:34.856Z,43.05
2022-11-20T18:17:14.087Z,42.88
2022-11-20T18:20:01.001Z,42.17
2022-11-20T18:22:32.464Z,41.08
2022-11-20T18:25:00.193Z,37.30
2022-11-20T18:27:27.846Z,35.10
2022-11-20T18:29:55.858Z,36.15
2022-11-20T18:32:23.563Z,38.67
2022-11-20T18:34:51.907Z,36.97
2022-11-20T18:37:20.052Z,34.38
2022-11-20T18:39:49.641Z,31.50
2022-11-20T18:42:36.792Z,32.97
2022-11-20T18:45:05.226Z,33.35
2022-11-20T18:47:37.580Z,29.77
2022-11-20T18:50:07.252Z,31.75
2022-11-20T18:52:39.530Z,37.00
2022-11-20T18:55:08.585Z,33.67
2022-11-20T18:57:36.522Z,34.63
2022-11-20T19:00:09.278Z,32.65
2022-11-20T19:02:42.308Z,34.53
2022-11-20T19:05:12.664Z,39.43
2022-11-20T19:07:40.771Z,38.75
2022-11-20T19:10:08.954Z,36.58
2022-11-20T19:12:37.525Z,34.03
2022-11-20T19:15:06.274Z,34.15
2022-11-20T19:17:34.359Z,34.88
2022-11-20T19:20:01.881Z,35.90
2022-11-20T19:22:29.929Z,37.25
2022-11-20T19:24:57.553Z,33.90
2022-11-20T19:27:25.171Z,35.22
2022-11-20T19:29:53.031Z,32.38
2022-11-20T19:32:21.092Z,32.05
2022-11-20T19:34:49.759Z,32.67
2022-11-20T19:37:17.576Z,31.75
2022-11-20T19:39:45.093Z,57.00
2022-11-20T19:42:12.780Z,41.30
2022-11-20T19:44:40.542Z,38.00
2022-11-20T19:47:15.377Z,35.38
2022-11-20T19:49:45.403Z,36.50
2022-11-20T19:52:13.218Z,39.00
2022-11-20T19:54:40.866Z,38.28
2022-11-20T19:57:08.416Z,41.22
2022-11-20T19:59:35.998Z,37.28
2022-11-20T20:02:03.914Z,35.45
2022-11-20T20:04:31.831Z,35.50
2022-11-20T20:07:00.881Z,36.90
2022-11-20T20:09:29.867Z,34.22
2022-11-20T20:11:57.971Z,36.25
2022-11-20T20:14:26.671Z,36.88
2022-11-20T20:16:54.645Z,35.75
2022-11-20T20:19:23.078Z,35.97
2022-11-20T20:21:51.040Z,37.22
2022-11-20T20:24:18.998Z,41.63
2022-11-20T20:26:47.164Z,35.60
2022-11-20T20:29:14.895Z,38.03
2022-11-20T20:31:42.874Z,38.30
2022-11-20T20:34:10.683Z,34.88
2022-11-20T20:36:38.191Z,35.15
2022-11-20T20:39:06.163Z,38.17
2022-11-20T20:41:33.784Z,36.10
2022-11-20T20:44:20.766Z,35.53
2022-11-20T20:46:51.201Z,38.92
2022-11-20T20:49:18.873Z,40.55
2022-11-20T20:51:47.068Z,41.22
2022-11-20T20:54:15.040Z,40.65
2022-11-20T20:56:42.828Z,43.13
2022-11-20T20:59:10.830Z,44.85
2022-11-20T21:01:39.354Z,45.33
2022-11-20T21:04:07.337Z,39.53
2022-11-20T21:06:34.799Z,37.03
2022-11-20T21:09:02.781Z,38.65
2022-11-20T21:11:30.360Z,38.38
2022-11-20T21:13:58.292Z,36.78
2022-11-20T21:16:25.924Z,37.25
2022-11-20T21:18:53.839Z,36.80
2022-11-20T21:21:40.002Z,35.08
2022-11-20T21:24:08.281Z,33.38
2022-11-20T21:26:35.853Z,33.58
2022-11-20T21:29:03.417Z,34.38
2022-11-20T21:31:31.178Z,35.40
2022-11-20T21:33:58.955Z,34.20
2022-11-20T21:36:29.197Z,38.45
2022-11-20T21:39:01.330Z,36.38
2022-11-20T21:41:30.680Z,35.63
2022-11-20T21:46:48.361Z,36.53
2022-11-20T21:49:18.079Z,38.60
2022-11-20T21:51:46.051Z,36.92
2022-11-20T21:54:13.916Z,35.30
2022-11-20T21:56:41.490Z,36.63
2022-11-20T21:59:13.030Z,37.90
2022-11-20T22:01:41.648Z,37.83
2022-11-20T22:04:14.421Z,35.65
2022-11-20T22:06:41.930Z,34.92
2022-11-20T22:09:10.151Z,34.05
2022-11-20T22:11:38.158Z,33.58
2022-11-20T22:14:21.051Z,34.35
2022-11-20T22:16:51.418Z,34.47
2022-11-20T22:19:20.711Z,34.17
2022-11-20T22:21:50.718Z,32.65
2022-11-20T22:24:21.186Z,34.08
2022-11-20T22:26:49.499Z,34.65
2022-11-20T22:29:21.428Z,32.28
2022-11-20T22:31:53.246Z,31.42
2022-11-20T22:34:21.932Z,35.08
2022-11-20T22:36:50.295Z,35.05
2022-11-20T22:39:18.702Z,34.30
2022-11-20T22:41:46.276Z,32.85
2022-11-20T22:44:15.561Z,32.05
2022-11-20T22:46:43.310Z,34.15
2022-11-20T22:49:10.960Z,35.72
2022-11-20T22:51:40.959Z,36.90
2022-11-20T22:54:11.241Z,34.70
2022-11-20T22:56:38.873Z,35.90
2022-11-20T22:59:07.251Z,35.42
2022-11-20T23:01:36.970Z,33.95
2022-11-20T23:04:07.281Z,35.25
2022-11-20T23:06:35.602Z,35.88
2022-11-20T23:09:05.173Z,34.65
2022-11-20T23:11:33.885Z,39.35
2022-11-20T23:14:07.467Z,36.83
2022-11-20T23:16:35.897Z,34.95
2022-11-20T23:19:06.870Z,32.85
2022-11-20T23:21:37.498Z,33.53
2022-11-20T23:24:06.567Z,34.05
2022-11-20T23:26:37.450Z,33.10
2022-11-20T23:29:06.346Z,34.72
2022-11-20T23:31:35.601Z,33.78
2022-11-20T23:34:04.357Z,30.85
2022-11-20T23:36:31.962Z,31.02
2022-11-20T23:38:59.581Z,33.47
2022-11-20T23:41:27.262Z,33.30
2022-11-20T23:43:55.166Z,31.60
2022-11-20T23:46:23.116Z,31.35
2022-11-20T23:48:51.151Z,31.50
2022-11-20T23:51:18.670Z,29.55
2022-11-20T23:53:46.161Z,31.67
2022-11-20T23:56:16.822Z,31.58
2022-11-20T23:58:44.364Z,30.05
